createdAt,value
2018-09-21T06:21:15.575Z,92.80
2018-09-21T06:23:43.832Z,99.90
2018-09-21T06:26:12.183Z,99.90
2018-09-21T06:28:40.545Z,99.90
2018-09-21T06:31:08.894Z,99.90
2018-09-21T06:33:37.228Z,99.90
2018-09-21T06:36:05.824Z,99.90
2018-09-21T06:38:34.762Z,99.90
2018-09-21T06:41:03.349Z,99.90
2018-09-21T06:43:31.656Z,99.90
2018-09-21T06:45:59.998Z,99.90
2018-09-21T06:48:28.352Z,99.90
2018-09-21T06:50:56.716Z,99.90
2018-09-21T06:53:25.119Z,99.90
2018-09-21T06:55:53.456Z,99.90
2018-09-21T06:58:21.792Z,99.90
2018-09-21T07:00:50.180Z,99.90
2018-09-21T07:03:18.486Z,99.90
2018-09-21T07:05:46.868Z,99.90
2018-09-21T07:08:15.247Z,99.90
2018-09-21T07:10:43.628Z,99.90
2018-09-21T07:13:12.007Z,99.90
2018-09-21T07:15:40.350Z,99.90
2018-09-21T07:18:08.983Z,99.90
2018-09-21T07:20:37.335Z,99.90
2018-09-21T07:23:05.682Z,99.90
2018-09-21T07:25:34.028Z,99.90
2018-09-21T07:28:02.382Z,99.90
2018-09-21T07:30:30.750Z,99.90
2018-09-21T07:32:59.071Z,99.90
2018-09-21T07:35:27.528Z,99.90
2018-09-21T07:37:56.190Z,99.90
2018-09-21T07:40:25.124Z,99.90
2018-09-21T07:42:53.532Z,99.90
2018-09-21T07:45:21.993Z,99.90
2018-09-21T07:47:50.302Z,99.90
2018-09-21T07:50:19.378Z,99.90
2018-09-21T07:52:47.709Z,99.90
2018-09-21T07:55:15.991Z,99.90
2018-09-21T07:57:51.673Z,99.90
2018-09-21T08:00:20.032Z,99.90
2018-09-21T08:02:49.247Z,99.90
2018-09-21T08:05:21.779Z,99.90
2018-09-21T08:07:50.138Z,99.90
2018-09-21T08:10:18.431Z,99.90
2018-09-21T08:12:46.840Z,99.90
2018-09-21T08:15:15.968Z,99.90
2018-09-21T08:17:44.397Z,99.90
2018-09-21T08:20:12.840Z,99.90
2018-09-21T08:22:41.279Z,99.90
2018-09-21T08:25:09.631Z,99.60
2018-09-21T08:27:38.071Z,99.30
2018-09-21T08:30:06.443Z,99.20
2018-09-21T08:32:34.714Z,98.90
2018-09-21T08:35:03.113Z,98.10
2018-09-21T08:37:31.451Z,97.50
2018-09-21T08:39:59.931Z,96.90
2018-09-21T08:42:28.831Z,96.10
2018-09-21T08:44:57.200Z,95.40
2018-09-21T08:47:25.860Z,94.90
2018-09-21T08:49:54.386Z,94.70
2018-09-21T08:52:22.710Z,94.40
2018-09-21T08:54:51.302Z,93.90
2018-09-21T08:57:19.700Z,93.20
2018-09-21T08:59:48.101Z,92.80
2018-09-21T09:02:17.189Z,92.30
2018-09-21T09:04:45.556Z,92.20
2018-09-21T09:07:13.933Z,91.80
2018-09-21T09:09:42.226Z,91.40
2018-09-21T09:12:10.581Z,90.90
2018-09-21T09:14:38.917Z,91.00
2018-09-21T09:17:07.341Z,90.60
2018-09-21T09:19:35.794Z,90.40
2018-09-21T09:22:04.203Z,90.00
2018-09-21T09:24:32.541Z,88.60
2018-09-21T09:27:00.908Z,87.30
2018-09-21T09:29:29.286Z,87.10
2018-09-21T09:31:57.669Z,86.70
2018-09-21T09:34:26.020Z,85.40
2018-09-21T09:36:54.410Z,84.40
2018-09-21T09:39:22.750Z,84.10
2018-09-21T09:41:51.150Z,82.60
2018-09-21T09:44:19.470Z,81.80
2018-09-21T09:46:47.872Z,81.00
2018-09-21T09:49:16.276Z,79.80
2018-09-21T09:51:44.648Z,78.60
2018-09-21T09:54:13.121Z,78.00
2018-09-21T09:56:41.455Z,77.60
2018-09-21T09:59:09.851Z,75.60
2018-09-21T10:01:38.204Z,74.60
2018-09-21T10:04:06.558Z,74.30
2018-09-21T10:06:35.039Z,73.90
2018-09-21T10:09:05.200Z,73.90
2018-09-21T10:11:33.611Z,73.20
2018-09-21T10:14:01.950Z,73.40
2018-09-21T10:16:30.280Z,72.20
2018-09-21T10:18:58.606Z,71.80
2018-09-21T10:21:26.955Z,70.90
2018-09-21T10:23:55.328Z,71.00
2018-09-21T10:26:23.665Z,70.10
2018-09-21T10:28:52.289Z,70.10
2018-09-21T10:31:20.435Z,69.50
2018-09-21T10:33:48.898Z,68.30
2018-09-21T10:36:17.125Z,66.30
2018-09-21T10:38:45.478Z,64.70
2018-09-21T10:41:13.877Z,64.20
2018-09-21T10:43:42.263Z,62.20
2018-09-21T10:46:10.632Z,62.40
2018-09-21T10:48:38.988Z,60.60
2018-09-21T10:51:07.383Z,60.50
2018-09-21T10:53:36.080Z,60.40
2018-09-21T10:56:04.391Z,59.80
2018-09-21T10:58:32.698Z,58.90
2018-09-21T11:01:01.056Z,58.30
2018-09-21T11:03:29.384Z,57.70
2018-09-21T11:05:57.764Z,57.40
2018-09-21T11:08:26.119Z,57.30
2018-09-21T11:10:54.485Z,57.50
2018-09-21T11:13:22.803Z,57.30
2018-09-21T11:15:51.454Z,58.10
2018-09-21T11:18:19.804Z,58.20
2018-09-21T11:20:48.270Z,58.50
2018-09-21T11:23:16.590Z,58.70
2018-09-21T11:25:44.926Z,58.70
2018-09-21T11:28:13.264Z,58.30
2018-09-21T11:30:41.587Z,58.40
2018-09-21T11:33:10.031Z,58.10
2018-09-21T11:35:38.415Z,57.90
2018-09-21T11:38:06.746Z,57.50
2018-09-21T11:40:35.309Z,57.10
2018-09-21T11:43:03.732Z,56.90
2018-09-21T11:45:32.150Z,56.50
2018-09-21T11:48:00.601Z,55.80
2018-09-21T11:50:29.024Z,55.20
2018-09-21T11:52:58.022Z,55.10
2018-09-21T11:55:26.398Z,55.40
2018-09-21T11:57:54.739Z,55.20
2018-09-21T12:00:23.015Z,55.10
2018-09-21T12:02:51.411Z,54.20
2018-09-21T12:05:19.740Z,54.40
2018-09-21T12:07:48.140Z,53.70
2018-09-21T12:10:16.565Z,53.40
2018-09-21T12:12:44.928Z,53.40
2018-09-21T12:15:13.198Z,53.20
2018-09-21T12:17:41.555Z,53.80
2018-09-21T12:20:09.878Z,53.60
2018-09-21T12:22:39.267Z,53.90
2018-09-21T12:25:07.559Z,54.20
2018-09-21T12:27:35.943Z,54.30
2018-09-21T12:30:04.430Z,54.00
2018-09-21T12:32:32.769Z,53.90
2018-09-21T12:35:01.091Z,53.80
2018-09-21T12:37:29.443Z,53.90
2018-09-21T12:39:57.809Z,53.60
2018-09-21T12:42:26.200Z,53.40
2018-09-21T12:44:54.658Z,53.00
2018-09-21T12:47:23.174Z,53.20
2018-09-21T12:52:26.205Z,51.60
2018-09-21T12:54:54.560Z,51.90
2018-09-21T12:57:22.880Z,52.00
2018-09-21T12:59:51.241Z,52.00
2018-09-21T13:02:19.741Z,51.90
2018-09-21T13:04:48.113Z,52.00
2018-09-21T13:07:16.407Z,52.40
2018-09-21T13:09:45.708Z,52.80
2018-09-21T13:12:14.062Z,53.20
2018-09-21T13:14:42.368Z,53.60
2018-09-21T13:17:10.679Z,53.70
2018-09-21T13:19:39.396Z,54.00
2018-09-21T13:22:07.770Z,54.20
2018-09-21T13:24:36.139Z,54.50
2018-09-21T13:27:04.435Z,54.10
2018-09-21T13:29:32.771Z,53.90
2018-09-21T13:32:01.103Z,53.10
2018-09-21T13:34:29.388Z,52.20
2018-09-21T13:36:57.779Z,52.70
2018-09-21T13:39:26.136Z,53.30
2018-09-21T13:41:54.540Z,53.80
2018-09-21T13:44:22.880Z,53.90
2018-09-21T13:46:51.275Z,54.20
2018-09-21T13:49:19.558Z,54.50
2018-09-21T13:51:47.964Z,54.80
2018-09-21T13:54:16.333Z,55.30
2018-09-21T13:56:44.683Z,55.60
2018-09-21T13:59:13.018Z,55.80
2018-09-21T14:01:41.394Z,56.10
2018-09-21T14:04:09.767Z,56.40
2018-09-21T14:06:38.112Z,56.80
2018-09-21T14:09:07.764Z,57.10
2018-09-21T14:11:36.134Z,56.90
2018-09-21T14:14:04.501Z,57.20
2018-09-21T14:16:32.888Z,57.20
2018-09-21T14:19:01.282Z,57.50
2018-09-21T14:21:29.771Z,57.80
2018-09-21T14:23:58.115Z,57.90
2018-09-21T14:26:26.481Z,58.10
2018-09-21T14:28:54.814Z,58.00
2018-09-21T14:31:23.163Z,58.00
2018-09-21T14:33:51.492Z,58.10
2018-09-21T14:36:19.989Z,58.00
2018-09-21T14:38:48.339Z,58.10
2018-09-21T14:41:17.091Z,58.00
2018-09-21T14:43:45.464Z,57.70
2018-09-21T14:46:13.844Z,57.50
2018-09-21T14:48:42.172Z,57.80
2018-09-21T15:28:12.616Z,66.20
2018-09-21T15:30:40.931Z,99.90
2018-09-21T15:33:09.509Z,99.90
2018-09-21T15:35:37.836Z,99.90
2018-09-21T15:38:06.245Z,99.90
2018-09-21T15:40:34.581Z,99.90
2018-09-21T15:43:03.066Z,99.90
2018-09-21T15:45:31.481Z,99.90
2018-09-21T15:47:59.878Z,99.90
2018-09-21T15:50:28.213Z,99.90
2018-09-21T15:52:56.575Z,99.90
2018-09-21T15:55:24.967Z,99.90
2018-09-21T15:57:53.395Z,99.90
2018-09-21T16:00:21.754Z,99.90
2018-09-21T16:02:50.139Z,99.90
2018-09-21T16:05:18.526Z,99.90
2018-09-21T16:07:46.901Z,99.90
2018-09-21T16:10:15.250Z,99.90
2018-09-21T16:12:43.617Z,99.90
2018-09-21T16:15:11.970Z,99.90
2018-09-21T16:17:40.297Z,99.90
2018-09-21T16:20:08.717Z,99.90
2018-09-21T16:22:37.112Z,99.90
2018-09-21T16:25:05.484Z,99.90
2018-09-21T16:27:34.230Z,99.90
2018-09-21T17:04:36.360Z,99.90
2018-09-21T17:07:04.750Z,99.90
2018-09-21T17:09:33.079Z,99.90
2018-09-21T17:12:01.368Z,99.90
2018-09-21T17:14:29.764Z,99.90
2018-09-21T17:16:58.116Z,99.90
2018-09-21T17:19:26.432Z,99.90
2018-09-21T17:21:54.890Z,99.90
2018-09-21T17:24:23.302Z,99.90
2018-09-21T17:26:51.666Z,99.90
2018-09-21T17:29:26.812Z,99.90
2018-09-21T17:31:56.113Z,99.90
2018-09-21T17:34:24.464Z,99.90
2018-09-21T17:36:52.927Z,99.90
2018-09-21T17:39:21.352Z,99.90
2018-09-21T17:41:49.640Z,99.90
2018-09-21T17:44:17.955Z,99.90
2018-09-21T17:46:46.272Z,99.90
2018-09-21T17:49:14.786Z,99.90
2018-09-21T17:51:43.571Z,99.90
2018-09-21T17:54:11.947Z,99.90
2018-09-21T17:59:18.400Z,99.90
2018-09-21T18:01:46.709Z,99.90
2018-09-21T18:04:15.147Z,99.90
2018-09-21T18:06:43.446Z,99.90
2018-09-21T18:09:11.993Z,99.90
2018-09-21T18:11:40.353Z,99.90
2018-09-21T18:14:08.863Z,99.90
2018-09-21T18:16:37.333Z,99.90
2018-09-21T18:21:40.375Z,99.90
2018-09-21T18:24:09.339Z,99.90
2018-09-21T18:26:37.665Z,99.90
2018-09-21T18:29:06.231Z,99.90
2018-09-21T18:31:34.696Z,99.90
2018-09-21T18:34:03.035Z,99.90
2018-09-21T18:36:31.394Z,99.90
2018-09-21T18:38:59.751Z,99.90
2018-09-21T18:41:28.148Z,99.90
2018-09-21T18:43:56.691Z,99.90
2018-09-21T18:46:25.035Z,99.90
2018-09-21T18:48:53.367Z,99.90
2018-09-21T18:51:21.660Z,99.90
2018-09-21T18:53:50.050Z,99.90
2018-09-21T18:56:18.389Z,99.90
2018-09-21T18:58:47.343Z,99.90
2018-09-21T19:01:15.720Z,99.90
2018-09-21T19:03:44.043Z,99.90
2018-09-21T19:06:12.432Z,99.90
2018-09-21T19:08:40.718Z,99.90
2018-09-21T19:11:09.195Z,99.90
2018-09-21T19:13:37.519Z,99.90
2018-09-21T19:16:05.918Z,99.90
2018-09-21T19:18:34.199Z,99.90
2018-09-21T19:21:02.584Z,99.90
2018-09-21T19:23:30.955Z,99.90
2018-09-21T19:25:59.263Z,99.90
2018-09-21T19:28:27.668Z,99.90
2018-09-21T19:30:56.023Z,99.90
2018-09-21T19:33:24.411Z,99.90
2018-09-21T19:35:52.881Z,99.90
2018-09-21T19:38:21.190Z,99.90
2018-09-21T19:40:49.579Z,99.90
2018-09-21T19:43:17.963Z,99.90
2018-09-21T19:45:46.393Z,99.90
2018-09-21T19:48:14.768Z,99.90
2018-09-21T19:50:43.144Z,99.90
2018-09-21T19:53:12.209Z,99.90
2018-09-21T19:55:40.475Z,99.90
2018-09-21T19:58:09.645Z,99.90
2018-09-21T20:00:37.959Z,99.90
2018-09-21T20:03:06.566Z,99.90
2018-09-21T20:05:34.859Z,99.90
2018-09-21T20:08:03.190Z,99.90
2018-09-21T20:10:31.640Z,99.90
2018-09-21T20:12:59.990Z,99.90
2018-09-21T20:15:28.600Z,99.90
2018-09-21T20:17:56.926Z,99.90
2018-09-21T20:20:25.842Z,99.90
2018-09-21T20:22:54.291Z,99.90
2018-09-21T20:25:22.959Z,99.90
2018-09-21T20:27:51.556Z,99.90
2018-09-21T20:30:25.355Z,99.90
2018-09-21T20:32:59.344Z,99.90
2018-09-21T20:35:27.813Z,99.90
2018-09-21T20:37:56.134Z,99.90
2018-09-21T20:40:24.556Z,99.90
2018-09-21T20:42:53.155Z,99.90
2018-09-21T20:45:21.784Z,99.90
2018-09-21T20:47:50.164Z,99.90
2018-09-21T20:50:18.545Z,99.90
2018-09-21T20:52:47.185Z,99.90
2018-09-21T20:55:15.686Z,99.90
2018-09-21T20:57:44.234Z,99.90
2018-09-21T21:00:12.612Z,99.90
2018-09-21T21:02:40.929Z,99.90
2018-09-21T21:05:09.448Z,99.90
2018-09-21T21:07:37.848Z,99.90
2018-09-21T21:10:06.512Z,99.90
2018-09-21T21:12:35.003Z,99.90
2018-09-21T21:15:03.465Z,99.90
2018-09-21T21:17:32.408Z,99.90
2018-09-21T21:20:00.784Z,99.90
2018-09-21T21:22:29.237Z,99.90
2018-09-21T21:24:57.655Z,99.90
2018-09-21T21:27:26.083Z,99.90
2018-09-21T21:29:54.654Z,99.90
2018-09-21T21:32:23.117Z,99.90
2018-09-21T21:34:51.502Z,99.90
2018-09-21T21:37:19.859Z,99.90
2018-09-21T21:39:48.449Z,99.90
2018-09-21T21:42:16.742Z,99.90
2018-09-21T21:44:45.139Z,99.90
2018-09-21T21:47:13.472Z,99.90
2018-09-21T21:49:41.894Z,99.90
2018-09-21T21:52:10.263Z,99.90
2018-09-21T21:54:38.619Z,99.90
2018-09-21T21:57:07.039Z,99.90
2018-09-21T21:59:35.443Z,99.90
2018-09-21T22:02:03.816Z,99.90
2018-09-21T22:04:32.121Z,99.90
2018-09-21T22:07:00.464Z,99.90
2018-09-21T22:09:28.788Z,99.90
2018-09-21T22:12:02.566Z,99.90
2018-09-21T22:14:30.862Z,99.90
2018-09-21T22:16:59.199Z,99.90
2018-09-21T22:19:27.532Z,99.90
2018-09-21T22:21:55.885Z,99.90
2018-09-21T22:24:24.316Z,99.90
2018-09-21T22:26:52.674Z,99.90
2018-09-21T22:29:21.297Z,99.90
2018-09-21T22:31:49.636Z,99.90
2018-09-21T22:34:18.197Z,99.90
2018-09-21T22:36:46.588Z,99.90
2018-09-21T22:39:14.974Z,99.90
2018-09-21T22:41:43.479Z,99.90
2018-09-21T22:44:11.824Z,99.90
2018-09-21T22:46:40.202Z,99.90
2018-09-21T22:49:13.705Z,99.90
2018-09-21T22:51:42.060Z,99.90
2018-09-21T22:54:10.392Z,99.90
2018-09-21T22:56:38.736Z,99.90
2018-09-21T22:59:07.068Z,99.90
2018-09-21T23:01:35.675Z,99.90
2018-09-21T23:04:04.004Z,99.90
2018-09-21T23:06:32.287Z,99.90
2018-09-21T23:09:00.599Z,99.90
2018-09-21T23:11:28.983Z,99.90
2018-09-21T23:13:57.312Z,99.90
2018-09-21T23:16:25.694Z,99.90
2018-09-21T23:18:54.119Z,99.90
2018-09-21T23:21:22.458Z,99.90
2018-09-21T23:23:50.750Z,99.90
2018-09-21T23:26:19.043Z,99.90
2018-09-21T23:28:47.522Z,99.90
2018-09-21T23:31:15.926Z,99.90
2018-09-21T23:33:44.349Z,99.90
2018-09-21T23:36:12.698Z,99.90
2018-09-21T23:38:41.080Z,99.90
2018-09-21T23:41:09.443Z,99.90
2018-09-21T23:43:37.775Z,99.90
2018-09-21T23:46:06.579Z,99.90
2018-09-21T23:48:35.110Z,99.90
2018-09-21T23:51:03.521Z,99.90
2018-09-21T23:53:32.492Z,99.90
2018-09-21T23:56:00.773Z,99.90
2018-09-21T23:58:29.111Z,99.90
